Saturday, June 25, 2016, 2:51 AM EDT

KW99, Petersburg, Grant County Airport

Location: Petersburg, WV, United States Lat: 38.983
Local Time: 2:51 AM EDT ( 6:51 GMT) Lon: -79.133
Time Zone: US/Eastern Elev: 961 ft

Show me the last for .
Show Decoded

2016-06-25 02:35 METAR KW99 250635Z AUTO 00000KT 1 3/4SM BR OVC002 20/20 A3013 RMK AO2 T01950195
                 =
2016-06-25 02:15 METAR KW99 250615Z AUTO 00000KT 2SM BR OVC002 20/20 A3012 RMK AO2 T01950195 =
2016-06-25 01:55 METAR KW99 250555Z AUTO 00000KT 3SM BR OVC002 20/20 A3012 RMK AO2 T01950195
                 10221 20190 403050174 =
2016-06-25 01:35 METAR KW99 250535Z AUTO 00000KT 4SM BR BKN002 BKN028 OVC034 20/19 A3012 RMK AO2
                 T01950193 =
2016-06-25 01:15 METAR KW99 250515Z AUTO 00000KT 1 1/2SM BR SCT002 SCT026 BKN035 19/19 A3012 RMK
                 AO2 T01900190 =
2016-06-25 00:55 METAR KW99 250455Z AUTO 00000KT 2 1/2SM BR SCT003 BKN025 OVC044 19/19 A3012 RMK
                 AO2 T01910190 =
2016-06-25 00:35 METAR KW99 250435Z AUTO 00000KT 2 1/2SM BR OVC003 19/19 A3011 RMK AO2 VIS 3/4V4
                 T01930191 =
2016-06-25 00:15 METAR KW99 250415Z AUTO 00000KT 1 1/2SM BR BKN003 BKN031 19/19 A3011 RMK AO2
                 T01930191 =
2016-06-24 23:55 METAR KW99 250355Z AUTO 00000KT 1 1/2SM BR SCT003 SCT027 BKN031 20/19 A3011 RMK
                 AO2 T01950193 =
2016-06-24 23:35 METAR KW99 250335Z AUTO 00000KT 5SM BR SCT003 BKN030 OVC048 20/20 A3011 RMK AO2
                 T01980195 =
2016-06-24 23:15 METAR KW99 250315Z AUTO 00000KT 5SM BR SCT032 BKN039 BKN048 20/19 A3011 RMK AO2
                 T01970193 =
2016-06-24 22:55 METAR KW99 250255Z AUTO 00000KT 7SM SCT025 BKN034 BKN043 20/20 A3011 RMK AO2 LTG
                 DSNT SE T02000197 =
2016-06-24 22:35 METAR KW99 250235Z AUTO 08003KT 1 3/4SM BR OVC025 20/20 A3010 RMK AO2 VIS 3/4V4
                 T01970195 =
2016-06-24 22:15 METAR KW99 250215Z AUTO 00000KT 3SM BR SCT027 SCT033 20/20 A3010 RMK AO2
                 T01970195 =
2016-06-24 21:55 METAR KW99 250155Z AUTO 00000KT 5SM BR BKN027 OVC033 20/20 A3010 RMK AO2
                 T01990195 =
2016-06-24 21:35 METAR KW99 250135Z AUTO 27003KT 4SM BR BKN029 20/20 A3009 RMK AO2 T02000198 =
2016-06-24 21:15 METAR KW99 250115Z AUTO 00000KT 5SM BR BKN029 20/20 A3008 RMK AO2 T02040201 =
2016-06-24 20:55 METAR KW99 250055Z AUTO 00000KT 4SM BR SCT029 20/20 A3007 RMK AO2 T02010198 =
2016-06-24 20:35 METAR KW99 250035Z AUTO 00000KT 5SM BR SCT024 SCT120 21/20 A3007 RMK AO2
                 T02060201 =
2016-06-24 20:15 METAR KW99 250015Z AUTO 00000KT 10SM BKN110 22/20 A3007 RMK AO2 T02190201 =
2016-06-24 19:55 METAR KW99 242355Z AUTO 00000KT 10SM SCT024 SCT065 OVC110 22/20 A3007 RMK AO2
                 60146 T02200200 10305 20204 =
2016-06-24 19:35 METAR KW99 242335Z AUTO 00000KT 10SM SCT024 SCT075 OVC110 22/20 A3007 RMK AO2
                 T02200200 =
2016-06-24 19:15 METAR KW99 242315Z AUTO 00000KT 10SM SCT055 OVC110 22/20 A3005 RMK AO2 LTG DSNT
                 S T02160199 =
2016-06-24 18:55 METAR KW99 242255Z AUTO 00000KT 10SM VCTS BKN055 BKN070 OVC090 22/20 A3006 RMK
                 AO2 T02190200 =
2016-06-24 18:35 METAR KW99 242235Z AUTO 31003KT 10SM SCT012 BKN065 OVC085 22/20 A3005 RMK AO2
                 LTG DSNT SE T02180202 =
2016-06-24 18:15 METAR KW99 242215Z AUTO 16003KT 10SM SCT014 SCT050 OVC065 22/20 A3005 RMK AO2
                 LTG DSNT E THRU S T02190200 =
2016-06-24 17:55 METAR KW99 242155Z AUTO 11006KT 10SM SCT016 SCT043 OVC065 22/21 A3005 RMK AO2
                 LTG DSNT SE P0130 T02240206 =
2016-06-24 17:35 METAR KW99 242135Z AUTO 35007KT 10SM SCT004 SCT012 BKN065 22/21 A3005 RMK AO2
                 LTG DSNT E AND SE P0130 T02210205 =
2016-06-24 17:15 METAR KW99 242115Z AUTO 04003KT 1/2SM +TSRA OVC004 21/19 A3004 RMK AO2 LTG DSNT
                 ALQS P0127 T02050191 =
2016-06-24 16:55 METAR KW99 242055Z AUTO 33025G35KT 1 1/4SM +TSRA SCT006 BKN035 OVC120 25/20
                 A3003 RMK AO2 VIS 1/4V5 LTG DSNT ALQS P0009 60009 T02490198 =
2016-06-24 16:35 METAR KW99 242035Z AUTO 00000KT 10SM TS SCT120 30/21 A2998 RMK AO2 LTG DSNT NW
                 THRU E T02960208 =
2016-06-24 16:15 METAR KW99 242015Z AUTO 07006KT 10SM CLR 30/21 A2999 RMK AO2 LTG DSNT NW
                 T02970206 =
2016-06-24 15:55 METAR KW99 241955Z AUTO 00000KT 10SM SCT041 SCT120 31/21 A2999 RMK AO2 T03050209
                 =
2016-06-24 15:35 METAR KW99 241935Z AUTO 00000KT 10SM CLR 30/20 A2999 RMK AO2 T02970196 =
2016-06-24 15:15 METAR KW99 241915Z AUTO 00000KT 10SM CLR 30/20 A2999 RMK AO2 T02970196 =
2016-06-24 14:55 METAR KW99 241855Z AUTO 00000KT 10SM SCT120 29/20 A3000 RMK AO2 T02870203 =
2016-06-24 14:35 METAR KW99 241835Z AUTO 00000KT 10SM SCT039 SCT050 SCT090 28/23 A3000 RMK AO2
                 LTG DSNT E T02750228 =
2016-06-24 14:15 METAR KW99 241815Z AUTO 00000KT 4SM -RA SCT033 BKN065 OVC095 26/22 A3001 RMK AO2
                 T02570218 =
2016-06-24 13:55 METAR KW99 241755Z AUTO 14003KT 10SM SCT037 SCT100 29/21 A3000 RMK AO2 T02920211
                 10296 20205 =
2016-06-24 13:35 METAR KW99 241735Z AUTO 00000KT 10SM CLR 28/21 A3000 RMK AO2 T02840211 =
2016-06-24 13:15 METAR KW99 241715Z AUTO 04003KT 10SM SCT034 BKN110 28/21 A3000 RMK AO2 T02820208
                 =
2016-06-24 12:55 METAR KW99 241655Z AUTO 09006KT 10SM SCT032 BKN110 28/21 A3001 RMK AO2 T02840213
                 =
2016-06-24 12:35 METAR KW99 241635Z AUTO 09005KT 10SM SCT030 28/21 A3001 RMK AO2 T02840213 =
2016-06-24 12:15 METAR KW99 241615Z AUTO 10003KT 10SM BKN030 OVC037 28/21 A3001 RMK AO2 T02750212
                 =
2016-06-24 11:55 METAR KW99 241555Z AUTO 00000KT 10SM SCT028 28/21 A3002 RMK AO2 T02770213 =
2016-06-24 11:35 METAR KW99 241535Z AUTO 00000KT 10SM SCT026 27/21 A3002 RMK AO2 T02720212 =
2016-06-24 11:15 METAR KW99 241515Z AUTO 00000KT 10SM CLR 26/21 A3002 RMK AO2 T02610210 =
2016-06-24 10:55 METAR KW99 241455Z AUTO 00000KT 10SM CLR 26/21 A3002 RMK AO2 T02600211 =
2016-06-24 10:35 METAR KW99 241435Z AUTO 00000KT 10SM CLR 25/21 A3002 RMK AO2 T02510208 =
2016-06-24 10:15 METAR KW99 241415Z AUTO 00000KT 10SM CLR 24/21 A3002 RMK AO2 T02430208 =
2016-06-24 09:55 METAR KW99 241355Z AUTO 00000KT 10SM CLR 24/21 A3002 RMK AO2 T02370206 =
2016-06-24 09:35 METAR KW99 241335Z AUTO 00000KT 10SM SCT007 23/21 A3002 RMK AO2 T02340205 =
2016-06-24 09:15 METAR KW99 241315Z AUTO 00000KT 10SM BKN007 22/20 A3002 RMK AO2 T02230201 =
2016-06-24 08:55 METAR KW99 241255Z AUTO 00000KT 10SM OVC005 22/20 A3002 RMK AO2 T02240204 =
2016-06-24 08:35 METAR KW99 241235Z AUTO 00000KT 10SM OVC005 21/20 A3003 RMK AO2 T02130200 =
2016-06-24 08:15 METAR KW99 241215Z AUTO 00000KT 10SM OVC003 21/20 A3002 RMK AO2 T02050195 =
2016-06-24 07:55 METAR KW99 241155Z AUTO 00000KT 10SM BKN003 BKN009 20/19 A3001 RMK AO2 T02030193
                 10203 20174 =
2016-06-24 07:35 METAR KW99 241135Z AUTO 00000KT 10SM SCT001 BKN009 20/19 A3001 RMK AO2 T01950192
                 =
2016-06-24 07:15 METAR KW99 241115Z AUTO 00000KT 7SM SCT001 SCT005 BKN009 19/19 A3000 RMK AO2
                 T01890188 =
2016-06-24 06:55 METAR KW99 241055Z AUTO 00000KT 5SM BR BKN001 BKN043 BKN080 18/18 A3000 RMK AO2
                 T01830182 =
2016-06-24 06:35 METAR KW99 241035Z AUTO 00000KT 3SM BR SCT001 SCT046 SCT050 18/18 A2999 RMK AO2
                 T01780177 =
2016-06-24 06:15 METAR KW99 241015Z AUTO 00000KT 3/4SM BR SCT001 SCT046 BKN085 18/18 A2999 RMK
                 AO2 T01780176 =
2016-06-24 05:55 METAR KW99 240955Z AUTO 00000KT 3/4SM BR SCT001 BKN085 18/18 A2998 RMK AO2
                 T01770176 =
2016-06-24 05:35 METAR KW99 240935Z AUTO 00000KT 3SM BR SCT075 18/18 A2997 RMK AO2 T01800179 =
2016-06-24 05:15 METAR KW99 240915Z AUTO 00000KT 7SM SCT035 SCT043 BKN075 19/18 A2997 RMK AO2
                 T01850182 =
2016-06-24 04:55 METAR KW99 240855Z AUTO 00000KT 7SM SCT036 BKN044 OVC075 19/19 A2997 RMK AO2
                 T01860185 =
2016-06-24 04:35 METAR KW99 240835Z AUTO 00000KT 10SM SCT002 BKN055 OVC085 19/19 A2996 RMK AO2
                 T01860185 =
2016-06-24 04:15 METAR KW99 240815Z AUTO 00000KT 7SM SCT002 OVC070 19/19 A2996 RMK AO2 T01870185
                 =
2016-06-24 03:55 METAR KW99 240755Z AUTO 00000KT 7SM OVC070 19/19 A2996 RMK AO2 T01860185 =
2016-06-24 03:35 METAR KW99 240735Z AUTO 00000KT 7SM SCT050 OVC070 19/19 A2996 RMK AO2 T01870185
                 =
2016-06-24 03:15 METAR KW99 240715Z AUTO 28003KT 7SM SCT042 BKN050 OVC070 19/19 A2996 RMK AO2
                 T01860185
2016-06-24 02:55 METAR KW99 240655Z AUTO 00000KT 10SM BKN042 OVC050 18/18 A2995 RMK AO2 T01840182
                 =

Support USWX by starting your Amazon purchase here.